createdAt,value
2018-05-12T00:00:39.193Z,15.95
2018-05-12T00:03:06.798Z,15.92
2018-05-12T00:05:34.631Z,15.94
2018-05-12T00:08:02.254Z,15.96
2018-05-12T00:10:29.821Z,15.96
2018-05-12T00:12:59.515Z,15.93
2018-05-12T00:15:27.102Z,15.94
2018-05-12T00:17:54.777Z,15.91
2018-05-12T00:20:22.353Z,15.86
2018-05-12T00:22:49.957Z,15.88
2018-05-12T00:25:18.836Z,15.88
2018-05-12T00:27:47.725Z,15.82
2018-05-12T00:30:15.616Z,15.80
2018-05-12T00:32:43.366Z,15.77
2018-05-12T00:35:11.002Z,15.79
2018-05-12T00:37:38.635Z,15.78
2018-05-12T00:40:06.205Z,15.78
2018-05-12T00:42:34.010Z,15.83
2018-05-12T00:45:01.827Z,15.83
2018-05-12T00:47:29.463Z,15.77
2018-05-12T00:49:57.028Z,15.76
2018-05-12T00:52:24.754Z,15.73
2018-05-12T00:54:52.351Z,15.71
2018-05-12T00:57:19.925Z,15.71
2018-05-12T00:59:47.584Z,15.71
2018-05-12T01:02:15.211Z,15.71
2018-05-12T01:04:42.798Z,15.69
2018-05-12T01:07:12.355Z,15.70
2018-05-12T01:09:40.039Z,15.71
2018-05-12T01:12:07.617Z,15.71
2018-05-12T01:14:35.272Z,15.68
2018-05-12T01:17:03.261Z,15.71
2018-05-12T01:19:30.822Z,15.75
2018-05-12T01:21:58.699Z,15.77
2018-05-12T01:24:26.330Z,15.77
2018-05-12T01:26:54.127Z,15.77
2018-05-12T01:29:21.693Z,15.76
2018-05-12T01:31:50.075Z,15.75
2018-05-12T01:34:17.895Z,15.74
2018-05-12T01:36:45.778Z,15.75
2018-05-12T01:39:13.370Z,15.75
2018-05-12T01:41:40.971Z,15.74
2018-05-12T01:44:08.844Z,15.73
2018-05-12T01:46:36.423Z,15.73
2018-05-12T01:49:04.149Z,15.75
2018-05-12T01:51:31.750Z,15.76
2018-05-12T01:53:59.400Z,15.75
2018-05-12T01:56:27.004Z,15.75
2018-05-12T01:58:54.631Z,15.71
2018-05-12T02:01:22.299Z,15.69
2018-05-12T02:03:49.885Z,15.65
2018-05-12T02:06:17.523Z,15.63
2018-05-12T02:08:45.191Z,15.62
2018-05-12T02:11:12.832Z,15.60
2018-05-12T02:13:40.443Z,15.58
2018-05-12T02:16:08.116Z,15.54
2018-05-12T02:18:36.002Z,15.48
2018-05-12T02:21:03.588Z,15.41
2018-05-12T02:23:31.431Z,15.39
2018-05-12T02:25:59.072Z,15.37
2018-05-12T02:28:26.942Z,15.36
2018-05-12T02:30:54.542Z,15.33
2018-05-12T02:33:22.350Z,15.33
2018-05-12T02:35:49.957Z,15.32
2018-05-12T02:38:17.584Z,15.30
2018-05-12T02:40:45.171Z,15.27
2018-05-12T02:43:12.743Z,15.26
2018-05-12T02:45:40.360Z,15.20
2018-05-12T02:48:08.161Z,15.16
2018-05-12T02:50:35.892Z,15.13
2018-05-12T02:53:03.455Z,15.12
2018-05-12T02:55:31.076Z,15.09
2018-05-12T02:57:58.661Z,15.05
2018-05-12T03:00:27.123Z,15.00
2018-05-12T03:02:54.762Z,14.99
2018-05-12T03:05:22.338Z,14.93
2018-05-12T03:07:49.984Z,14.87
2018-05-12T03:10:17.573Z,14.85
2018-05-12T03:12:45.241Z,14.85
2018-05-12T03:15:12.811Z,14.82
2018-05-12T03:17:40.459Z,14.80
2018-05-12T03:20:08.101Z,14.76
2018-05-12T03:22:35.664Z,14.74
2018-05-12T03:25:03.436Z,14.73
2018-05-12T03:27:31.037Z,14.74
2018-05-12T03:29:59.542Z,14.72
2018-05-12T03:32:27.140Z,14.72
2018-05-12T03:34:54.701Z,14.73
2018-05-12T03:37:22.405Z,14.72
2018-05-12T03:39:49.975Z,14.71
2018-05-12T03:42:17.539Z,14.70
2018-05-12T03:44:45.180Z,14.70
2018-05-12T03:47:12.839Z,14.71
2018-05-12T03:49:40.836Z,14.72
2018-05-12T03:52:08.394Z,14.73
2018-05-12T03:54:35.970Z,14.70
2018-05-12T03:57:03.684Z,14.69
2018-05-12T03:59:31.260Z,14.69
2018-05-12T04:01:58.819Z,14.70
2018-05-12T04:04:38.096Z,14.71
2018-05-12T04:07:17.544Z,14.71
2018-05-12T04:09:57.064Z,14.71
2018-05-12T04:12:29.734Z,14.71
2018-05-12T04:14:57.355Z,14.69
2018-05-12T04:17:24.954Z,14.68
2018-05-12T04:19:52.562Z,14.68
2018-05-12T04:22:20.349Z,14.67
2018-05-12T04:24:47.914Z,14.65
2018-05-12T04:27:15.523Z,14.67
2018-05-12T04:29:43.107Z,14.66
2018-05-12T04:32:10.882Z,14.69
2018-05-12T04:34:38.475Z,14.68
2018-05-12T04:37:06.353Z,14.72
2018-05-12T04:39:34.323Z,14.75
2018-05-12T04:42:01.916Z,14.79
2018-05-12T04:44:29.501Z,14.83
2018-05-12T04:46:57.098Z,14.90
2018-05-12T04:49:24.714Z,14.92
2018-05-12T04:51:52.302Z,14.94
2018-05-12T04:54:20.158Z,15.01
2018-05-12T04:56:47.786Z,15.08
2018-05-12T04:59:15.398Z,15.14
2018-05-12T05:01:42.990Z,15.21
2018-05-12T05:04:10.556Z,15.27
2018-05-12T05:06:38.250Z,15.36
2018-05-12T05:09:06.058Z,15.41
2018-05-12T05:11:33.624Z,15.50
2018-05-12T05:14:01.448Z,15.58
2018-05-12T05:16:29.016Z,15.66
2018-05-12T05:18:56.613Z,15.71
2018-05-12T05:21:24.480Z,15.72
2018-05-12T05:23:52.282Z,15.76
2018-05-12T05:26:19.881Z,15.81
2018-05-12T05:28:47.448Z,15.88
2018-05-12T05:31:15.602Z,15.98
2018-05-12T05:33:43.236Z,16.05
2018-05-12T05:36:10.909Z,16.16
2018-05-12T05:38:38.524Z,16.27
2018-05-12T05:41:06.330Z,16.36
2018-05-12T05:43:34.454Z,16.41
2018-05-12T05:46:02.106Z,16.48
2018-05-12T05:48:29.670Z,16.55
2018-05-12T05:50:57.743Z,16.64
2018-05-12T05:53:25.324Z,16.68
2018-05-12T05:55:52.984Z,16.76
2018-05-12T05:58:20.688Z,16.82
2018-05-12T06:00:48.265Z,16.83
2018-05-12T06:03:15.891Z,16.91
2018-05-12T06:05:43.479Z,16.92
2018-05-12T06:08:11.043Z,16.94
2018-05-12T06:10:38.821Z,16.99
2018-05-12T06:13:06.485Z,17.06
2018-05-12T06:15:34.299Z,17.14
2018-05-12T06:18:02.175Z,17.19
2018-05-12T06:20:30.042Z,17.22
2018-05-12T06:22:57.987Z,17.30
2018-05-12T06:25:25.799Z,17.38
2018-05-12T06:27:53.426Z,17.45
2018-05-12T06:30:21.426Z,17.51
2018-05-12T06:32:49.218Z,17.56
2018-05-12T06:35:16.903Z,17.62
2018-05-12T06:37:44.495Z,17.73
2018-05-12T06:40:12.117Z,17.85
2018-05-12T06:42:39.739Z,17.95
2018-05-12T06:45:07.314Z,18.02
2018-05-12T06:47:34.906Z,18.12
2018-05-12T06:50:02.521Z,18.25
2018-05-12T06:52:30.079Z,18.39
2018-05-12T06:54:57.640Z,18.53
2018-05-12T06:57:25.311Z,18.69
2018-05-12T06:59:52.917Z,18.83
2018-05-12T07:02:20.628Z,18.98
2018-05-12T07:04:48.431Z,19.08
2018-05-12T07:07:16.089Z,19.03
2018-05-12T07:09:43.683Z,19.09
2018-05-12T07:12:11.282Z,19.20
2018-05-12T07:14:39.030Z,19.30
2018-05-12T07:17:06.699Z,19.38
2018-05-12T07:19:34.949Z,19.48
2018-05-12T07:22:03.184Z,19.55
2018-05-12T07:24:31.304Z,19.68
2018-05-12T07:26:59.629Z,19.83
2018-05-12T07:29:27.828Z,19.91
2018-05-12T07:31:56.255Z,20.01
2018-05-12T07:34:24.383Z,20.21
2018-05-12T07:36:53.505Z,20.40
2018-05-12T07:39:21.146Z,20.58
2018-05-12T07:41:48.800Z,20.69
2018-05-12T07:44:16.514Z,20.78
2018-05-12T07:46:44.258Z,20.90
2018-05-12T07:49:11.841Z,21.04
2018-05-12T07:51:39.752Z,21.12
2018-05-12T07:54:07.324Z,21.11
2018-05-12T07:56:35.036Z,21.12
2018-05-12T07:59:02.667Z,21.23
2018-05-12T08:01:30.232Z,21.37
2018-05-12T08:03:57.820Z,21.49
2018-05-12T08:06:25.386Z,21.65
2018-05-12T08:08:53.021Z,21.75
2018-05-12T08:11:20.589Z,21.91
2018-05-12T08:13:48.154Z,21.97
2018-05-12T08:16:15.851Z,22.10
2018-05-12T08:18:43.419Z,22.18
2018-05-12T08:21:10.987Z,22.19
2018-05-12T08:23:38.934Z,22.26
2018-05-12T08:26:06.854Z,22.35
2018-05-12T08:28:34.660Z,22.46
2018-05-12T08:31:03.138Z,22.54
2018-05-12T08:33:30.715Z,22.68
2018-05-12T08:35:58.662Z,22.82
2018-05-12T08:38:26.242Z,23.02
2018-05-12T08:40:54.055Z,23.14
2018-05-12T08:43:21.859Z,23.24
2018-05-12T08:45:49.426Z,23.35
2018-05-12T08:48:17.097Z,23.43
2018-05-12T08:50:44.659Z,23.53
2018-05-12T08:53:12.308Z,23.63
2018-05-12T08:55:39.961Z,23.67
2018-05-12T08:58:07.639Z,23.79
2018-05-12T09:00:35.228Z,23.92
2018-05-12T09:03:02.849Z,24.01
2018-05-12T09:05:30.651Z,24.18
2018-05-12T09:07:58.233Z,24.34
2018-05-12T09:10:25.878Z,24.45
2018-05-12T09:12:53.444Z,24.51
2018-05-12T09:15:21.125Z,24.56
2018-05-12T09:17:51.515Z,24.67
2018-05-12T09:20:20.101Z,24.83
2018-05-12T09:22:48.716Z,24.90
2018-05-12T09:25:16.582Z,25.07
2018-05-12T09:27:44.595Z,25.05
2018-05-12T09:30:12.190Z,25.20
2018-05-12T09:32:39.754Z,25.47
2018-05-12T09:35:07.338Z,25.56
2018-05-12T09:37:34.915Z,25.61
2018-05-12T09:40:02.551Z,25.74
2018-05-12T09:42:30.235Z,25.88
2018-05-12T09:44:57.822Z,26.00
2018-05-12T09:47:25.619Z,26.00
2018-05-12T09:49:53.323Z,26.02
2018-05-12T09:52:22.942Z,25.82
2018-05-12T09:54:50.532Z,25.69
2018-05-12T09:57:18.674Z,25.73
2018-05-12T09:59:46.539Z,25.67
2018-05-12T10:02:14.374Z,25.72
2018-05-12T10:04:42.156Z,25.85
2018-05-12T10:07:10.021Z,26.17
2018-05-12T10:09:37.739Z,26.45
2018-05-12T10:12:05.729Z,26.43
2018-05-12T10:14:33.363Z,26.40
2018-05-12T10:17:00.916Z,26.32
2018-05-12T10:19:28.646Z,26.23
2018-05-12T10:21:57.067Z,26.39
2018-05-12T10:24:25.004Z,26.43
2018-05-12T10:26:52.581Z,26.39
2018-05-12T10:29:20.147Z,26.31
2018-05-12T10:31:47.858Z,26.22
2018-05-12T10:34:15.653Z,26.10
2018-05-12T10:36:43.248Z,25.91
2018-05-12T10:39:10.905Z,25.69
2018-05-12T10:41:38.465Z,25.58
2018-05-12T10:44:06.535Z,25.66
2018-05-12T10:46:34.088Z,25.83
2018-05-12T10:49:02.112Z,26.04
2018-05-12T10:51:29.708Z,26.05
2018-05-12T10:53:57.334Z,26.10
2018-05-12T10:56:25.144Z,25.92
2018-05-12T10:58:52.775Z,26.11
2018-05-12T11:01:20.449Z,26.46
2018-05-12T11:03:48.146Z,26.70
2018-05-12T11:06:15.958Z,26.74
2018-05-12T11:08:43.540Z,26.57
2018-05-12T11:11:11.247Z,26.40
2018-05-12T11:13:38.963Z,26.49
2018-05-12T11:16:06.853Z,26.49
2018-05-12T11:18:34.493Z,26.52
2018-05-12T11:21:02.279Z,26.57
2018-05-12T11:23:29.981Z,26.75
2018-05-12T11:25:57.540Z,26.59
2018-05-12T11:28:25.099Z,26.55
2018-05-12T11:30:52.916Z,26.63
2018-05-12T11:33:20.709Z,26.56
2018-05-12T11:35:48.486Z,26.47
2018-05-12T11:38:16.361Z,26.09
2018-05-12T11:40:43.957Z,26.18
2018-05-12T11:43:11.513Z,26.25
2018-05-12T11:45:39.539Z,26.47
2018-05-12T11:48:07.373Z,26.48
2018-05-12T11:50:35.006Z,26.17
2018-05-12T11:53:02.618Z,26.33
2018-05-12T11:55:30.195Z,26.66
2018-05-12T11:57:57.756Z,26.82
2018-05-12T12:00:25.336Z,27.05
2018-05-12T12:02:53.595Z,27.27
2018-05-12T12:05:21.152Z,27.36
2018-05-12T12:07:48.717Z,27.34
2018-05-12T12:10:16.477Z,27.41
2018-05-12T12:12:44.117Z,27.58
2018-05-12T12:15:11.669Z,27.68
2018-05-12T12:17:39.471Z,27.51
2018-05-12T12:20:07.056Z,27.39
2018-05-12T12:22:34.602Z,27.50
2018-05-12T12:25:02.996Z,27.68
2018-05-12T12:27:30.548Z,27.88
2018-05-12T12:29:58.139Z,27.90
2018-05-12T12:32:25.821Z,27.80
2018-05-12T12:34:53.364Z,27.65
2018-05-12T12:37:20.910Z,27.60
2018-05-12T12:39:49.299Z,27.51
2018-05-12T12:42:17.096Z,27.36
2018-05-12T12:44:44.691Z,27.48
2018-05-12T12:47:12.328Z,27.69
2018-05-12T12:49:39.890Z,27.80
2018-05-12T12:52:07.745Z,28.03
2018-05-12T12:54:35.348Z,28.21
2018-05-12T12:57:03.029Z,28.57
2018-05-12T12:59:30.692Z,28.48
2018-05-12T13:01:58.242Z,28.44
2018-05-12T13:04:26.258Z,28.57
2018-05-12T13:06:54.131Z,28.61
2018-05-12T13:09:21.702Z,28.88
2018-05-12T13:11:49.605Z,29.11
2018-05-12T13:14:17.493Z,29.20
2018-05-12T13:16:45.050Z,29.26
2018-05-12T13:19:12.637Z,28.86
2018-05-12T13:21:40.422Z,28.60
2018-05-12T13:24:08.196Z,28.29
2018-05-12T13:26:36.105Z,28.14
2018-05-12T13:29:03.915Z,28.11
2018-05-12T13:31:31.563Z,28.53
2018-05-12T13:33:59.163Z,28.89
2018-05-12T13:36:27.059Z,29.26
2018-05-12T13:38:54.652Z,28.95
2018-05-12T13:41:22.364Z,28.95
2018-05-12T13:43:50.273Z,28.97
2018-05-12T13:46:17.823Z,29.22
2018-05-12T13:48:45.419Z,29.04
2018-05-12T13:51:12.967Z,29.02
2018-05-12T13:53:40.542Z,29.06
2018-05-12T13:56:08.102Z,29.22
2018-05-12T13:58:36.028Z,29.02
2018-05-12T14:01:03.815Z,29.20
2018-05-12T14:03:31.629Z,29.36
2018-05-12T14:05:59.253Z,29.33
2018-05-12T14:08:26.830Z,28.98
2018-05-12T14:10:54.463Z,28.66
2018-05-12T14:13:22.058Z,28.59
2018-05-12T14:15:49.936Z,28.54
2018-05-12T14:18:17.558Z,28.43
2018-05-12T14:20:45.138Z,28.32
2018-05-12T14:23:12.778Z,27.97
2018-05-12T14:25:40.708Z,27.87
2018-05-12T14:28:08.293Z,27.83
2018-05-12T14:30:35.875Z,27.90
2018-05-12T14:33:03.461Z,27.66
2018-05-12T14:35:31.091Z,27.58
2018-05-12T14:37:58.796Z,27.43
2018-05-12T14:40:26.363Z,27.65
2018-05-12T14:42:53.991Z,27.93
2018-05-12T14:45:21.807Z,28.21
2018-05-12T14:47:51.355Z,28.08
2018-05-12T14:50:18.960Z,28.22
2018-05-12T14:52:46.516Z,28.09
2018-05-12T14:55:14.102Z,28.20
2018-05-12T14:57:41.683Z,28.37
2018-05-12T15:00:09.265Z,28.47
2018-05-12T15:02:36.927Z,28.01
2018-05-12T15:05:04.576Z,27.98
2018-05-12T15:07:32.377Z,27.57
2018-05-12T15:10:00.045Z,27.41
2018-05-12T15:12:28.071Z,27.40
2018-05-12T15:14:55.745Z,27.52
2018-05-12T15:17:23.370Z,27.62
2018-05-12T15:19:50.987Z,27.63
2018-05-12T15:22:18.561Z,27.22
2018-05-12T15:24:46.144Z,27.13
2018-05-12T15:27:13.731Z,26.81
2018-05-12T15:29:41.440Z,26.85
2018-05-12T15:32:09.020Z,26.88
2018-05-12T15:34:36.577Z,26.68
2018-05-12T15:37:04.170Z,26.49
2018-05-12T15:39:31.851Z,26.47
2018-05-12T15:41:59.554Z,26.47
2018-05-12T15:44:27.219Z,26.58
2018-05-12T15:46:55.239Z,26.36
2018-05-12T15:49:22.900Z,26.15
2018-05-12T15:51:50.467Z,26.16
2018-05-12T15:54:18.446Z,26.13
2018-05-12T15:56:46.071Z,26.13
2018-05-12T15:59:13.695Z,26.12
2018-05-12T16:01:41.279Z,26.11
2018-05-12T16:04:09.231Z,26.11
2018-05-12T16:06:36.783Z,26.11
2018-05-12T16:09:04.398Z,26.04
2018-05-12T16:11:32.011Z,26.08
2018-05-12T16:13:59.625Z,26.18
2018-05-12T16:16:27.249Z,26.13
2018-05-12T16:18:55.166Z,25.89
2018-05-12T16:21:22.720Z,25.83
2018-05-12T16:23:50.280Z,25.56
2018-05-12T16:26:17.867Z,25.54
2018-05-12T16:28:45.487Z,25.32
2018-05-12T16:31:13.766Z,25.21
2018-05-12T16:33:41.285Z,25.22
2018-05-12T16:36:08.834Z,25.29
2018-05-12T16:38:36.421Z,25.30
2018-05-12T16:41:03.983Z,25.31
2018-05-12T16:43:31.701Z,25.17
2018-05-12T16:45:59.246Z,25.15
2018-05-12T16:48:27.125Z,25.13
2018-05-12T16:50:55.147Z,25.12
2018-05-12T16:53:22.706Z,25.04
2018-05-12T16:55:50.281Z,24.91
2018-05-12T16:58:17.889Z,24.87
2018-05-12T17:00:45.447Z,24.78
2018-05-12T17:03:13.086Z,24.70
2018-05-12T17:05:40.682Z,24.70
2018-05-12T17:08:08.469Z,24.71
2018-05-12T17:10:36.169Z,24.54
2018-05-12T17:13:03.967Z,24.52
2018-05-12T17:15:31.596Z,24.41
2018-05-12T17:17:59.188Z,24.38
2018-05-12T17:20:26.744Z,24.38
2018-05-12T17:22:54.796Z,24.23
2018-05-12T17:25:22.360Z,24.09
2018-05-12T17:27:49.919Z,24.04
2018-05-12T17:30:17.851Z,23.99
2018-05-12T17:32:45.481Z,24.01
2018-05-12T17:35:13.056Z,24.07
2018-05-12T17:37:40.869Z,23.95
2018-05-12T17:40:08.740Z,23.90
2018-05-12T17:42:36.322Z,23.88
2018-05-12T17:45:03.911Z,23.88
2018-05-12T17:47:31.662Z,23.84
2018-05-12T17:49:59.308Z,23.79
2018-05-12T17:52:26.866Z,23.80
2018-05-12T17:54:54.871Z,23.75
2018-05-12T17:57:22.488Z,23.73
2018-05-12T17:59:50.201Z,23.73
2018-05-12T18:02:17.868Z,23.73
2018-05-12T18:04:45.417Z,23.63
2018-05-12T18:07:13.021Z,23.60
2018-05-12T18:09:40.663Z,23.57
2018-05-12T18:12:08.527Z,23.56
2018-05-12T18:14:36.160Z,23.51
2018-05-12T18:17:03.921Z,23.48
2018-05-12T18:19:31.517Z,23.45
2018-05-12T18:21:59.158Z,23.32
2018-05-12T18:24:27.410Z,23.23
2018-05-12T18:26:55.037Z,23.16
2018-05-12T18:29:22.679Z,23.02
2018-05-12T18:31:50.485Z,22.98
2018-05-12T18:34:17.979Z,22.92
2018-05-12T18:36:45.553Z,22.94
2018-05-12T18:39:13.286Z,22.86
2018-05-12T18:41:41.100Z,22.78
2018-05-12T18:44:08.769Z,22.74
2018-05-12T18:46:36.319Z,22.70
2018-05-12T18:49:03.882Z,22.67
2018-05-12T18:51:31.598Z,22.55
2018-05-12T18:53:59.187Z,22.52
2018-05-12T18:56:26.744Z,22.49
2018-05-12T18:58:54.323Z,22.42
2018-05-12T19:01:21.894Z,22.33
2018-05-12T19:03:49.498Z,22.23
2018-05-12T19:06:17.103Z,22.16
2018-05-12T19:08:44.671Z,22.08
2018-05-12T19:11:12.444Z,22.04
2018-05-12T19:13:40.012Z,21.92
2018-05-12T19:16:07.581Z,21.94
2018-05-12T19:18:35.165Z,21.91
2018-05-12T19:21:02.791Z,21.89
2018-05-12T19:23:30.355Z,21.83
2018-05-12T19:25:57.918Z,21.78
2018-05-12T19:28:25.632Z,21.69
2018-05-12T19:30:53.204Z,21.65
2018-05-12T19:33:21.043Z,21.61
2018-05-12T19:35:48.636Z,21.57
2018-05-12T19:38:16.431Z,21.52
2018-05-12T19:40:44.731Z,21.49
2018-05-12T19:43:12.314Z,21.38
2018-05-12T19:45:40.101Z,21.25
2018-05-12T19:48:07.693Z,21.20
2018-05-12T19:50:35.273Z,21.16
2018-05-12T19:53:02.860Z,21.09
2018-05-12T19:55:30.467Z,21.00
2018-05-12T19:57:58.057Z,20.93
2018-05-12T20:00:25.713Z,20.92
2018-05-12T20:02:53.276Z,20.84
2018-05-12T20:05:20.876Z,20.83
2018-05-12T20:07:48.528Z,20.82
2018-05-12T20:10:16.320Z,20.76
2018-05-12T20:12:43.910Z,20.79
2018-05-12T20:15:11.800Z,20.73
2018-05-12T20:17:39.596Z,20.65
2018-05-12T20:20:07.252Z,20.64
2018-05-12T20:22:34.879Z,20.57
2018-05-12T20:25:02.596Z,20.56
2018-05-12T20:27:30.351Z,20.48
2018-05-12T20:29:57.978Z,20.48
2018-05-12T20:32:25.682Z,20.47
2018-05-12T20:34:53.328Z,20.48
2018-05-12T20:37:21.092Z,20.45
2018-05-12T20:39:48.641Z,20.41
2018-05-12T20:42:16.232Z,20.39
2018-05-12T20:44:44.035Z,20.32
2018-05-12T20:47:12.155Z,20.35
2018-05-12T20:49:39.719Z,20.33
2018-05-12T20:52:07.358Z,20.28
2018-05-12T20:54:34.979Z,20.19
2018-05-12T20:57:02.570Z,20.19
2018-05-12T20:59:30.508Z,20.13
2018-05-12T21:01:58.138Z,20.09
2018-05-12T21:04:25.756Z,20.04
2018-05-12T21:06:53.423Z,19.96
2018-05-12T21:09:20.988Z,19.95
2018-05-12T21:11:48.624Z,19.92
2018-05-12T21:14:16.201Z,19.87
2018-05-12T21:16:43.816Z,19.86
2018-05-12T21:19:11.478Z,19.76
2018-05-12T21:21:39.132Z,19.78
2018-05-12T21:24:06.847Z,19.77
2018-05-12T21:26:35.162Z,19.68
2018-05-12T21:29:02.738Z,19.67
2018-05-12T21:31:30.318Z,19.63
2018-05-12T21:33:57.908Z,19.58
2018-05-12T21:36:25.471Z,19.54
2018-05-12T21:38:53.108Z,19.51
2018-05-12T21:41:21.237Z,19.49
2018-05-12T21:43:49.369Z,19.46
2018-05-12T21:46:17.535Z,19.43
2018-05-12T21:48:45.663Z,19.36
2018-05-12T21:51:13.551Z,19.39
2018-05-12T21:53:41.816Z,19.33
2018-05-12T21:56:09.402Z,19.34
2018-05-12T21:58:36.999Z,19.26
2018-05-12T22:01:04.684Z,19.24
2018-05-12T22:03:32.334Z,19.21
2018-05-12T22:05:59.943Z,19.18
2018-05-12T22:08:27.525Z,19.17
2018-05-12T22:10:55.097Z,19.16
2018-05-12T22:13:22.976Z,19.12
2018-05-12T22:15:50.696Z,19.09
2018-05-12T22:18:18.266Z,19.02
2018-05-12T22:20:46.084Z,19.02
2018-05-12T22:23:13.686Z,19.01
2018-05-12T22:25:41.276Z,19.02
2018-05-12T22:28:08.960Z,18.98
2018-05-12T22:30:36.955Z,18.95
2018-05-12T22:33:04.657Z,18.91
2018-05-12T22:35:32.383Z,18.89
2018-05-12T22:38:00.018Z,18.92
2018-05-12T22:40:34.672Z,18.88
2018-05-12T22:43:02.601Z,18.86
2018-05-12T22:45:30.335Z,18.82
2018-05-12T22:47:57.997Z,18.76
2018-05-12T22:50:25.696Z,18.70
2018-05-12T22:53:07.332Z,18.62
2018-05-12T22:55:34.948Z,18.57
2018-05-12T22:58:02.654Z,18.57
2018-05-12T23:00:32.557Z,18.59
2018-05-12T23:03:00.228Z,18.56
2018-05-12T23:05:27.796Z,18.53
2018-05-12T23:07:55.900Z,18.48
2018-05-12T23:10:23.797Z,18.44
2018-05-12T23:12:51.439Z,18.44
2018-05-12T23:15:19.090Z,18.39
2018-05-12T23:17:47.013Z,18.38
2018-05-12T23:20:14.603Z,18.38
2018-05-12T23:22:48.114Z,18.33
2018-05-12T23:25:16.188Z,18.28
2018-05-12T23:27:43.778Z,18.19
2018-05-12T23:30:11.574Z,18.13
2018-05-12T23:32:39.251Z,18.11
2018-05-12T23:35:06.889Z,18.08
2018-05-12T23:37:34.823Z,18.06
2018-05-12T23:40:02.412Z,18.04
2018-05-12T23:42:30.184Z,18.00
2018-05-12T23:44:57.968Z,18.01
2018-05-12T23:47:25.680Z,17.98
2018-05-12T23:49:53.293Z,17.90
2018-05-12T23:52:20.864Z,17.87
2018-05-12T23:54:48.538Z,17.83
2018-05-12T23:57:16.115Z,17.76
2018-05-12T23:59:43.723Z,17.75
